sensor_id;sensor_type;location;lat;lon;timestamp;P1;durP1;ratioP1;P2;durP2;ratioP2
8564;SDS011;4320;51.498;6.556;2023-04-24T00:00:03;2.20;;;2.00;;
8564;SDS011;4320;51.498;6.556;2023-04-24T00:02:36;2.10;;;1.90;;
8564;SDS011;4320;51.498;6.556;2023-04-24T00:05:04;3.03;;;1.73;;
8564;SDS011;4320;51.498;6.556;2023-04-24T00:07:30;1.75;;;1.65;;
8564;SDS011;4320;51.498;6.556;2023-04-24T00:09:56;3.20;;;1.90;;
8564;SDS011;4320;51.498;6.556;2023-04-24T00:12:22;4.32;;;1.90;;
8564;SDS011;4320;51.498;6.556;2023-04-24T00:14:48;2.40;;;2.20;;
8564;SDS011;4320;51.498;6.556;2023-04-24T00:17:13;2.65;;;2.00;;
8564;SDS011;4320;51.498;6.556;2023-04-24T00:19:39;2.50;;;2.10;;
8564;SDS011;4320;51.498;6.556;2023-04-24T00:22:04;4.90;;;2.47;;
8564;SDS011;4320;51.498;6.556;2023-04-24T00:24:30;3.00;;;2.60;;
8564;SDS011;4320;51.498;6.556;2023-04-24T00:26:56;3.72;;;2.50;;
8564;SDS011;4320;51.498;6.556;2023-04-24T00:29:22;5.68;;;2.63;;
8564;SDS011;4320;51.498;6.556;2023-04-24T00:31:48;4.28;;;2.65;;
8564;SDS011;4320;51.498;6.556;2023-04-24T00:34:13;2.65;;;2.45;;
8564;SDS011;4320;51.498;6.556;2023-04-24T00:36:39;4.32;;;2.65;;
8564;SDS011;4320;51.498;6.556;2023-04-24T00:39:05;2.90;;;2.60;;
8564;SDS011;4320;51.498;6.556;2023-04-24T00:41:33;3.38;;;2.60;;
8564;SDS011;4320;51.498;6.556;2023-04-24T00:44:00;2.92;;;2.63;;
8564;SDS011;4320;51.498;6.556;2023-04-24T00:46:25;4.72;;;3.15;;
8564;SDS011;4320;51.498;6.556;2023-04-24T00:48:51;4.65;;;2.75;;
8564;SDS011;4320;51.498;6.556;2023-04-24T00:51:17;3.97;;;2.65;;
8564;SDS011;4320;51.498;6.556;2023-04-24T00:53:42;3.30;;;2.72;;
8564;SDS011;4320;51.498;6.556;2023-04-24T00:56:08;3.28;;;2.95;;
8564;SDS011;4320;51.498;6.556;2023-04-24T00:58:35;3.85;;;3.30;;
8564;SDS011;4320;51.498;6.556;2023-04-24T01:01:01;5.80;;;3.40;;
8564;SDS011;4320;51.498;6.556;2023-04-24T01:03:28;4.65;;;3.65;;
8564;SDS011;4320;51.498;6.556;2023-04-24T01:05:56;6.20;;;3.83;;
8564;SDS011;4320;51.498;6.556;2023-04-24T01:08:23;5.43;;;3.40;;
8564;SDS011;4320;51.498;6.556;2023-04-24T01:10:51;5.13;;;3.97;;
8564;SDS011;4320;51.498;6.556;2023-04-24T01:13:18;6.57;;;3.72;;
8564;SDS011;4320;51.498;6.556;2023-04-24T01:15:44;7.60;;;4.10;;
8564;SDS011;4320;51.498;6.556;2023-04-24T01:18:10;5.10;;;3.70;;
8564;SDS011;4320;51.498;6.556;2023-04-24T01:20:36;9.05;;;4.47;;
8564;SDS011;4320;51.498;6.556;2023-04-24T01:23:05;7.22;;;4.35;;
8564;SDS011;4320;51.498;6.556;2023-04-24T01:25:31;5.57;;;4.30;;
8564;SDS011;4320;51.498;6.556;2023-04-24T01:27:58;6.05;;;4.80;;
8564;SDS011;4320;51.498;6.556;2023-04-24T01:30:24;7.75;;;4.90;;
8564;SDS011;4320;51.498;6.556;2023-04-24T01:32:50;6.18;;;4.82;;
8564;SDS011;4320;51.498;6.556;2023-04-24T01:35:16;8.68;;;4.72;;
8564;SDS011;4320;51.498;6.556;2023-04-24T01:37:42;6.95;;;4.60;;
8564;SDS011;4320;51.498;6.556;2023-04-24T01:40:08;9.30;;;5.60;;
8564;SDS011;4320;51.498;6.556;2023-04-24T01:42:34;8.55;;;5.25;;
8564;SDS011;4320;51.498;6.556;2023-04-24T01:45:01;9.32;;;5.53;;
8564;SDS011;4320;51.498;6.556;2023-04-24T01:47:28;8.43;;;5.03;;
8564;SDS011;4320;51.498;6.556;2023-04-24T01:49:55;8.80;;;5.80;;
8564;SDS011;4320;51.498;6.556;2023-04-24T01:52:21;10.18;;;5.38;;
8564;SDS011;4320;51.498;6.556;2023-04-24T01:54:47;9.63;;;5.20;;
8564;SDS011;4320;51.498;6.556;2023-04-24T01:57:13;9.13;;;5.38;;
8564;SDS011;4320;51.498;6.556;2023-04-24T01:59:39;8.70;;;5.53;;
8564;SDS011;4320;51.498;6.556;2023-04-24T02:02:05;7.85;;;5.57;;
8564;SDS011;4320;51.498;6.556;2023-04-24T02:04:31;8.68;;;5.38;;
8564;SDS011;4320;51.498;6.556;2023-04-24T02:06:56;7.65;;;4.97;;
8564;SDS011;4320;51.498;6.556;2023-04-24T02:09:22;8.35;;;5.65;;
8564;SDS011;4320;51.498;6.556;2023-04-24T02:11:48;8.50;;;5.70;;
8564;SDS011;4320;51.498;6.556;2023-04-24T02:14:13;10.05;;;5.82;;
8564;SDS011;4320;51.498;6.556;2023-04-24T02:16:39;10.27;;;6.63;;
8564;SDS011;4320;51.498;6.556;2023-04-24T02:19:05;8.38;;;6.38;;
8564;SDS011;4320;51.498;6.556;2023-04-24T02:21:31;11.30;;;6.70;;
8564;SDS011;4320;51.498;6.556;2023-04-24T02:24:06;8.40;;;6.65;;
8564;SDS011;4320;51.498;6.556;2023-04-24T02:26:35;11.52;;;6.82;;
8564;SDS011;4320;51.498;6.556;2023-04-24T02:29:04;12.27;;;7.50;;
8564;SDS011;4320;51.498;6.556;2023-04-24T02:31:32;9.85;;;7.65;;
8564;SDS011;4320;51.498;6.556;2023-04-24T02:33:58;10.35;;;7.47;;
8564;SDS011;4320;51.498;6.556;2023-04-24T02:36:24;11.30;;;7.45;;
8564;SDS011;4320;51.498;6.556;2023-04-24T02:38:50;10.80;;;7.53;;
8564;SDS011;4320;51.498;6.556;2023-04-24T02:41:16;13.38;;;8.52;;
8564;SDS011;4320;51.498;6.556;2023-04-24T02:43:41;11.48;;;7.75;;
8564;SDS011;4320;51.498;6.556;2023-04-24T02:46:07;11.18;;;8.27;;
8564;SDS011;4320;51.498;6.556;2023-04-24T02:48:32;10.68;;;8.30;;
8564;SDS011;4320;51.498;6.556;2023-04-24T02:50:58;14.60;;;8.77;;
8564;SDS011;4320;51.498;6.556;2023-04-24T02:53:24;15.82;;;8.40;;
8564;SDS011;4320;51.498;6.556;2023-04-24T02:55:50;17.25;;;9.00;;
8564;SDS011;4320;51.498;6.556;2023-04-24T02:58:15;12.02;;;7.70;;
8564;SDS011;4320;51.498;6.556;2023-04-24T03:00:42;13.43;;;8.95;;
8564;SDS011;4320;51.498;6.556;2023-04-24T03:03:08;13.52;;;9.13;;
8564;SDS011;4320;51.498;6.556;2023-04-24T03:05:34;20.42;;;9.38;;
8564;SDS011;4320;51.498;6.556;2023-04-24T03:08:00;21.13;;;9.10;;
8564;SDS011;4320;51.498;6.556;2023-04-24T03:10:26;13.95;;;8.73;;
8564;SDS011;4320;51.498;6.556;2023-04-24T03:12:51;12.77;;;9.38;;
8564;SDS011;4320;51.498;6.556;2023-04-24T03:15:17;14.23;;;9.40;;
8564;SDS011;4320;51.498;6.556;2023-04-24T03:17:43;13.07;;;8.75;;
8564;SDS011;4320;51.498;6.556;2023-04-24T03:20:08;13.75;;;9.18;;
8564;SDS011;4320;51.498;6.556;2023-04-24T03:22:34;19.27;;;9.32;;
8564;SDS011;4320;51.498;6.556;2023-04-24T03:25:00;13.30;;;9.82;;
8564;SDS011;4320;51.498;6.556;2023-04-24T03:27:26;12.00;;;8.65;;
8564;SDS011;4320;51.498;6.556;2023-04-24T03:29:52;14.70;;;9.07;;
8564;SDS011;4320;51.498;6.556;2023-04-24T03:32:20;14.88;;;8.70;;
8564;SDS011;4320;51.498;6.556;2023-04-24T03:34:47;16.33;;;9.70;;
8564;SDS011;4320;51.498;6.556;2023-04-24T03:37:16;14.32;;;8.68;;
8564;SDS011;4320;51.498;6.556;2023-04-24T03:39:42;14.77;;;8.93;;
8564;SDS011;4320;51.498;6.556;2023-04-24T03:42:08;12.43;;;8.77;;
8564;SDS011;4320;51.498;6.556;2023-04-24T03:44:34;14.65;;;9.30;;
8564;SDS011;4320;51.498;6.556;2023-04-24T03:47:00;14.32;;;9.18;;
8564;SDS011;4320;51.498;6.556;2023-04-24T03:49:25;15.18;;;9.25;;
8564;SDS011;4320;51.498;6.556;2023-04-24T03:51:51;13.98;;;9.43;;
8564;SDS011;4320;51.498;6.556;2023-04-24T03:54:17;13.88;;;9.30;;
8564;SDS011;4320;51.498;6.556;2023-04-24T03:56:43;12.52;;;8.95;;
8564;SDS011;4320;51.498;6.556;2023-04-24T03:59:09;12.13;;;9.07;;
8564;SDS011;4320;51.498;6.556;2023-04-24T04:01:35;13.35;;;9.35;;
8564;SDS011;4320;51.498;6.556;2023-04-24T04:04:04;12.48;;;7.95;;
8564;SDS011;4320;51.498;6.556;2023-04-24T04:06:30;15.00;;;9.15;;
8564;SDS011;4320;51.498;6.556;2023-04-24T04:08:57;10.52;;;8.20;;
8564;SDS011;4320;51.498;6.556;2023-04-24T04:11:23;13.43;;;8.55;;
8564;SDS011;4320;51.498;6.556;2023-04-24T04:13:49;12.32;;;8.48;;
8564;SDS011;4320;51.498;6.556;2023-04-24T04:16:15;12.80;;;7.85;;
8564;SDS011;4320;51.498;6.556;2023-04-24T04:18:42;12.55;;;8.65;;
8564;SDS011;4320;51.498;6.556;2023-04-24T04:21:10;12.50;;;8.73;;
8564;SDS011;4320;51.498;6.556;2023-04-24T04:23:36;14.85;;;8.77;;
8564;SDS011;4320;51.498;6.556;2023-04-24T04:26:02;10.70;;;7.95;;
8564;SDS011;4320;51.498;6.556;2023-04-24T04:28:29;12.85;;;8.80;;
8564;SDS011;4320;51.498;6.556;2023-04-24T04:30:58;10.70;;;8.27;;
8564;SDS011;4320;51.498;6.556;2023-04-24T04:33:24;11.93;;;8.40;;
8564;SDS011;4320;51.498;6.556;2023-04-24T04:35:50;14.60;;;8.05;;
8564;SDS011;4320;51.498;6.556;2023-04-24T04:38:17;13.65;;;8.40;;
8564;SDS011;4320;51.498;6.556;2023-04-24T04:40:44;11.30;;;6.97;;
8564;SDS011;4320;51.498;6.556;2023-04-24T04:43:10;11.00;;;7.07;;
8564;SDS011;4320;51.498;6.556;2023-04-24T04:45:36;10.15;;;7.20;;
8564;SDS011;4320;51.498;6.556;2023-04-24T04:48:04;11.63;;;7.40;;
8564;SDS011;4320;51.498;6.556;2023-04-24T04:50:32;9.27;;;7.00;;
8564;SDS011;4320;51.498;6.556;2023-04-24T04:52:58;10.27;;;7.25;;
8564;SDS011;4320;51.498;6.556;2023-04-24T04:55:24;9.73;;;6.60;;
8564;SDS011;4320;51.498;6.556;2023-04-24T04:57:50;10.63;;;6.45;;
8564;SDS011;4320;51.498;6.556;2023-04-24T05:00:16;10.05;;;6.97;;
8564;SDS011;4320;51.498;6.556;2023-04-24T05:02:41;7.00;;;6.28;;
8564;SDS011;4320;51.498;6.556;2023-04-24T05:05:07;9.05;;;5.72;;
8564;SDS011;4320;51.498;6.556;2023-04-24T05:07:33;8.20;;;5.97;;
8564;SDS011;4320;51.498;6.556;2023-04-24T05:09:59;8.48;;;5.75;;
8564;SDS011;4320;51.498;6.556;2023-04-24T05:12:24;9.27;;;5.65;;
8564;SDS011;4320;51.498;6.556;2023-04-24T05:14:50;8.10;;;5.88;;
8564;SDS011;4320;51.498;6.556;2023-04-24T05:17:16;7.90;;;5.93;;
8564;SDS011;4320;51.498;6.556;2023-04-24T05:19:42;9.80;;;6.32;;
8564;SDS011;4320;51.498;6.556;2023-04-24T05:22:07;9.68;;;6.03;;
8564;SDS011;4320;51.498;6.556;2023-04-24T05:24:34;7.22;;;6.03;;
8564;SDS011;4320;51.498;6.556;2023-04-24T05:27:00;8.27;;;6.20;;
8564;SDS011;4320;51.498;6.556;2023-04-24T05:29:27;8.65;;;6.05;;
8564;SDS011;4320;51.498;6.556;2023-04-24T05:31:55;8.73;;;6.47;;
8564;SDS011;4320;51.498;6.556;2023-04-24T05:34:21;8.45;;;6.47;;
8564;SDS011;4320;51.498;6.556;2023-04-24T05:36:47;8.90;;;6.25;;
8564;SDS011;4320;51.498;6.556;2023-04-24T05:39:13;10.95;;;6.50;;
8564;SDS011;4320;51.498;6.556;2023-04-24T05:41:39;8.13;;;6.55;;
8564;SDS011;4320;51.498;6.556;2023-04-24T05:44:05;11.30;;;7.13;;
8564;SDS011;4320;51.498;6.556;2023-04-24T05:46:31;8.75;;;6.45;;
8564;SDS011;4320;51.498;6.556;2023-04-24T05:48:56;10.63;;;6.85;;
8564;SDS011;4320;51.498;6.556;2023-04-24T05:51:22;7.10;;;6.15;;
8564;SDS011;4320;51.498;6.556;2023-04-24T05:53:48;11.55;;;6.85;;
8564;SDS011;4320;51.498;6.556;2023-04-24T05:56:14;11.27;;;7.38;;
8564;SDS011;4320;51.498;6.556;2023-04-24T05:58:40;8.70;;;7.00;;
8564;SDS011;4320;51.498;6.556;2023-04-24T06:01:06;10.52;;;7.57;;
8564;SDS011;4320;51.498;6.556;2023-04-24T06:03:32;8.93;;;6.70;;
8564;SDS011;4320;51.498;6.556;2023-04-24T06:05:58;8.63;;;6.78;;
8564;SDS011;4320;51.498;6.556;2023-04-24T06:08:23;9.32;;;7.28;;
8564;SDS011;4320;51.498;6.556;2023-04-24T06:10:49;9.38;;;7.35;;
8564;SDS011;4320;51.498;6.556;2023-04-24T06:13:15;13.50;;;7.38;;
8564;SDS011;4320;51.498;6.556;2023-04-24T06:15:41;9.98;;;7.07;;
8564;SDS011;4320;51.498;6.556;2023-04-24T06:18:07;12.18;;;7.28;;
8564;SDS011;4320;51.498;6.556;2023-04-24T06:20:35;9.73;;;7.20;;
8564;SDS011;4320;51.498;6.556;2023-04-24T06:23:00;9.93;;;7.15;;
8564;SDS011;4320;51.498;6.556;2023-04-24T06:25:26;9.00;;;6.30;;
8564;SDS011;4320;51.498;6.556;2023-04-24T06:27:52;8.00;;;6.45;;
8564;SDS011;4320;51.498;6.556;2023-04-24T06:30:19;7.40;;;6.25;;
8564;SDS011;4320;51.498;6.556;2023-04-24T06:32:45;10.52;;;7.40;;
8564;SDS011;4320;51.498;6.556;2023-04-24T06:35:10;10.77;;;5.95;;
8564;SDS011;4320;51.498;6.556;2023-04-24T06:37:37;8.88;;;5.38;;
8564;SDS011;4320;51.498;6.556;2023-04-24T06:40:04;8.32;;;5.32;;
8564;SDS011;4320;51.498;6.556;2023-04-24T06:42:31;6.57;;;4.88;;
8564;SDS011;4320;51.498;6.556;2023-04-24T06:44:56;6.93;;;5.45;;
8564;SDS011;4320;51.498;6.556;2023-04-24T06:47:22;7.82;;;5.22;;
8564;SDS011;4320;51.498;6.556;2023-04-24T06:49:47;6.82;;;4.93;;
8564;SDS011;4320;51.498;6.556;2023-04-24T06:52:15;5.80;;;5.20;;
8564;SDS011;4320;51.498;6.556;2023-04-24T06:54:41;4.97;;;4.20;;
8564;SDS011;4320;51.498;6.556;2023-04-24T06:57:07;4.55;;;3.70;;
8564;SDS011;4320;51.498;6.556;2023-04-24T06:59:33;5.22;;;4.03;;
8564;SDS011;4320;51.498;6.556;2023-04-24T07:01:59;3.80;;;3.20;;
8564;SDS011;4320;51.498;6.556;2023-04-24T07:04:25;2.40;;;2.20;;
8564;SDS011;4320;51.498;6.556;2023-04-24T07:06:51;5.45;;;2.70;;
8564;SDS011;4320;51.498;6.556;2023-04-24T07:09:19;4.05;;;2.53;;
8564;SDS011;4320;51.498;6.556;2023-04-24T07:11:45;3.10;;;1.90;;
8564;SDS011;4320;51.498;6.556;2023-04-24T07:14:11;2.75;;;2.17;;
8564;SDS011;4320;51.498;6.556;2023-04-24T07:16:37;2.47;;;2.00;;
8564;SDS011;4320;51.498;6.556;2023-04-24T07:19:03;2.28;;;1.80;;
8564;SDS011;4320;51.498;6.556;2023-04-24T07:21:28;2.28;;;2.00;;
8564;SDS011;4320;51.498;6.556;2023-04-24T07:23:56;2.63;;;1.90;;
8564;SDS011;4320;51.498;6.556;2023-04-24T07:26:21;2.17;;;1.98;;
8564;SDS011;4320;51.498;6.556;2023-04-24T07:28:47;2.78;;;1.98;;
8564;SDS011;4320;51.498;6.556;2023-04-24T07:31:12;2.20;;;2.00;;
8564;SDS011;4320;51.498;6.556;2023-04-24T07:33:38;3.05;;;2.20;;
8564;SDS011;4320;51.498;6.556;2023-04-24T07:36:04;2.08;;;1.98;;
8564;SDS011;4320;51.498;6.556;2023-04-24T07:38:30;2.53;;;2.00;;
8564;SDS011;4320;51.498;6.556;2023-04-24T07:40:56;5.25;;;1.98;;
8564;SDS011;4320;51.498;6.556;2023-04-24T07:43:21;1.88;;;1.77;;
8564;SDS011;4320;51.498;6.556;2023-04-24T07:45:48;1.90;;;1.77;;
8564;SDS011;4320;51.498;6.556;2023-04-24T07:48:17;1.92;;;1.73;;
8564;SDS011;4320;51.498;6.556;2023-04-24T07:50:43;3.97;;;1.70;;
8564;SDS011;4320;51.498;6.556;2023-04-24T07:53:10;2.13;;;1.65;;
8564;SDS011;4320;51.498;6.556;2023-04-24T07:55:35;1.90;;;1.70;;
8564;SDS011;4320;51.498;6.556;2023-04-24T07:58:01;1.92;;;1.50;;
8564;SDS011;4320;51.498;6.556;2023-04-24T08:00:27;1.90;;;1.70;;
8564;SDS011;4320;51.498;6.556;2023-04-24T08:02:52;1.80;;;1.70;;
8564;SDS011;4320;51.498;6.556;2023-04-24T08:05:18;2.28;;;1.75;;
8564;SDS011;4320;51.498;6.556;2023-04-24T08:07:44;2.30;;;1.85;;
8564;SDS011;4320;51.498;6.556;2023-04-24T08:10:13;1.90;;;1.77;;
8564;SDS011;4320;51.498;6.556;2023-04-24T08:12:39;2.88;;;2.08;;
8564;SDS011;4320;51.498;6.556;2023-04-24T08:15:05;1.90;;;1.80;;
8564;SDS011;4320;51.498;6.556;2023-04-24T08:17:32;1.70;;;1.52;;
8564;SDS011;4320;51.498;6.556;2023-04-24T08:19:59;1.60;;;1.50;;
8564;SDS011;4320;51.498;6.556;2023-04-24T08:22:26;2.92;;;1.95;;
8564;SDS011;4320;51.498;6.556;2023-04-24T08:24:53;1.83;;;1.67;;
8564;SDS011;4320;51.498;6.556;2023-04-24T08:27:19;2.53;;;2.13;;
8564;SDS011;4320;51.498;6.556;2023-04-24T08:29:44;1.58;;;1.48;;
8564;SDS011;4320;51.498;6.556;2023-04-24T08:32:10;2.17;;;1.63;;
8564;SDS011;4320;51.498;6.556;2023-04-24T08:34:36;1.50;;;1.40;;
8564;SDS011;4320;51.498;6.556;2023-04-24T08:37:02;1.88;;;1.50;;
8564;SDS011;4320;51.498;6.556;2023-04-24T08:39:27;1.35;;;1.25;;
8564;SDS011;4320;51.498;6.556;2023-04-24T08:41:54;1.63;;;1.52;;
8564;SDS011;4320;51.498;6.556;2023-04-24T08:44:20;2.38;;;1.67;;
8564;SDS011;4320;51.498;6.556;2023-04-24T08:46:47;2.30;;;1.90;;
8564;SDS011;4320;51.498;6.556;2023-04-24T08:49:14;4.45;;;3.63;;
8564;SDS011;4320;51.498;6.556;2023-04-24T08:51:43;6.78;;;5.20;;
8564;SDS011;4320;51.498;6.556;2023-04-24T08:54:10;7.55;;;5.53;;
8564;SDS011;4320;51.498;6.556;2023-04-24T08:56:37;8.63;;;6.28;;
8564;SDS011;4320;51.498;6.556;2023-04-24T08:59:05;11.68;;;7.13;;
8564;SDS011;4320;51.498;6.556;2023-04-24T09:01:31;11.75;;;7.53;;
8564;SDS011;4320;51.498;6.556;2023-04-24T09:04:03;10.43;;;6.35;;
8564;SDS011;4320;51.498;6.556;2023-04-24T09:06:29;11.25;;;6.45;;
8564;SDS011;4320;51.498;6.556;2023-04-24T09:08:57;12.52;;;7.63;;
8564;SDS011;4320;51.498;6.556;2023-04-24T09:11:25;9.35;;;5.97;;
8564;SDS011;4320;51.498;6.556;2023-04-24T09:13:51;9.65;;;6.90;;
8564;SDS011;4320;51.498;6.556;2023-04-24T09:16:18;7.85;;;5.70;;
8564;SDS011;4320;51.498;6.556;2023-04-24T09:18:45;7.97;;;5.00;;
8564;SDS011;4320;51.498;6.556;2023-04-24T09:21:11;7.68;;;5.55;;
8564;SDS011;4320;51.498;6.556;2023-04-24T09:23:36;8.18;;;6.28;;
8564;SDS011;4320;51.498;6.556;2023-04-24T09:26:03;9.02;;;6.45;;
8564;SDS011;4320;51.498;6.556;2023-04-24T09:28:34;11.98;;;6.50;;
8564;SDS011;4320;51.498;6.556;2023-04-24T09:31:23;9.48;;;6.97;;
8564;SDS011;4320;51.498;6.556;2023-04-24T09:36:26;9.95;;;6.95;;
8564;SDS011;4320;51.498;6.556;2023-04-24T09:39:00;14.43;;;9.50;;
8564;SDS011;4320;51.498;6.556;2023-04-24T09:41:27;16.10;;;9.70;;
8564;SDS011;4320;51.498;6.556;2023-04-24T09:43:54;11.18;;;7.72;;
8564;SDS011;4320;51.498;6.556;2023-04-24T09:46:20;12.38;;;6.55;;
8564;SDS011;4320;51.498;6.556;2023-04-24T09:48:47;10.70;;;6.60;;
8564;SDS011;4320;51.498;6.556;2023-04-24T09:51:13;7.82;;;6.00;;
8564;SDS011;4320;51.498;6.556;2023-04-24T09:53:44;13.90;;;6.32;;
8564;SDS011;4320;51.498;6.556;2023-04-24T09:56:11;8.98;;;5.90;;
8564;SDS011;4320;51.498;6.556;2023-04-24T09:58:40;9.68;;;5.20;;
8564;SDS011;4320;51.498;6.556;2023-04-24T10:01:07;14.38;;;5.40;;
8564;SDS011;4320;51.498;6.556;2023-04-24T10:03:33;14.38;;;4.63;;
8564;SDS011;4320;51.498;6.556;2023-04-24T10:06:00;12.38;;;4.85;;
8564;SDS011;4320;51.498;6.556;2023-04-24T10:08:26;8.50;;;5.57;;
8564;SDS011;4320;51.498;6.556;2023-04-24T10:10:57;8.85;;;4.70;;
8564;SDS011;4320;51.498;6.556;2023-04-24T10:13:24;13.52;;;5.18;;
8564;SDS011;4320;51.498;6.556;2023-04-24T10:15:50;15.00;;;5.38;;
8564;SDS011;4320;51.498;6.556;2023-04-24T10:18:16;13.10;;;5.10;;
8564;SDS011;4320;51.498;6.556;2023-04-24T10:20:42;12.15;;;5.03;;
8564;SDS011;4320;51.498;6.556;2023-04-24T10:23:09;11.98;;;4.78;;
8564;SDS011;4320;51.498;6.556;2023-04-24T10:25:36;10.80;;;5.47;;
8564;SDS011;4320;51.498;6.556;2023-04-24T10:28:03;10.82;;;4.82;;
8564;SDS011;4320;51.498;6.556;2023-04-24T10:30:30;15.05;;;5.10;;
8564;SDS011;4320;51.498;6.556;2023-04-24T10:33:00;10.20;;;4.70;;
8564;SDS011;4320;51.498;6.556;2023-04-24T10:35:26;12.15;;;4.82;;
8564;SDS011;4320;51.498;6.556;2023-04-24T10:37:59;7.50;;;3.95;;
8564;SDS011;4320;51.498;6.556;2023-04-24T10:40:33;11.43;;;3.67;;
8564;SDS011;4320;51.498;6.556;2023-04-24T10:43:03;15.00;;;4.20;;
8564;SDS011;4320;51.498;6.556;2023-04-24T10:45:32;9.18;;;4.47;;
8564;SDS011;4320;51.498;6.556;2023-04-24T10:48:02;9.35;;;4.00;;
8564;SDS011;4320;51.498;6.556;2023-04-24T10:50:28;12.10;;;4.60;;
8564;SDS011;4320;51.498;6.556;2023-04-24T10:53:07;9.27;;;4.90;;
8564;SDS011;4320;51.498;6.556;2023-04-24T10:58:12;12.13;;;4.70;;
8564;SDS011;4320;51.498;6.556;2023-04-24T11:00:40;11.13;;;4.97;;
8564;SDS011;4320;51.498;6.556;2023-04-24T11:03:07;8.77;;;4.30;;
8564;SDS011;4320;51.498;6.556;2023-04-24T11:05:59;10.43;;;4.43;;
8564;SDS011;4320;51.498;6.556;2023-04-24T11:11:17;13.90;;;4.80;;
8564;SDS011;4320;51.498;6.556;2023-04-24T11:19:01;9.30;;;4.32;;
8564;SDS011;4320;51.498;6.556;2023-04-24T11:24:23;8.18;;;3.65;;
8564;SDS011;4320;51.498;6.556;2023-04-24T11:27:04;8.25;;;3.40;;
8564;SDS011;4320;51.498;6.556;2023-04-24T11:29:47;9.38;;;3.55;;
8564;SDS011;4320;51.498;6.556;2023-04-24T11:32:25;4.30;;;2.60;;
8564;SDS011;4320;51.498;6.556;2023-04-24T11:37:21;8.70;;;3.78;;
8564;SDS011;4320;51.498;6.556;2023-04-24T11:39:52;7.65;;;3.55;;
8564;SDS011;4320;51.498;6.556;2023-04-24T11:42:19;11.02;;;3.53;;
8564;SDS011;4320;51.498;6.556;2023-04-24T11:44:46;8.90;;;3.28;;
8564;SDS011;4320;51.498;6.556;2023-04-24T11:47:14;9.43;;;3.20;;
8564;SDS011;4320;51.498;6.556;2023-04-24T11:49:40;8.48;;;3.58;;
8564;SDS011;4320;51.498;6.556;2023-04-24T11:52:05;5.45;;;3.10;;
8564;SDS011;4320;51.498;6.556;2023-04-24T11:54:31;7.80;;;3.30;;
8564;SDS011;4320;51.498;6.556;2023-04-24T11:56:57;8.98;;;3.00;;
8564;SDS011;4320;51.498;6.556;2023-04-24T11:59:23;6.43;;;2.92;;
8564;SDS011;4320;51.498;6.556;2023-04-24T12:01:49;4.15;;;2.83;;
8564;SDS011;4320;51.498;6.556;2023-04-24T12:04:15;6.13;;;2.95;;
8564;SDS011;4320;51.498;6.556;2023-04-24T12:09:28;4.07;;;2.78;;
8564;SDS011;4320;51.498;6.556;2023-04-24T12:11:54;3.75;;;2.35;;
8564;SDS011;4320;51.498;6.556;2023-04-24T12:14:22;2.97;;;1.88;;
8564;SDS011;4320;51.498;6.556;2023-04-24T12:16:48;5.10;;;2.00;;
8564;SDS011;4320;51.498;6.556;2023-04-24T12:19:20;4.68;;;1.80;;
8564;SDS011;4320;51.498;6.556;2023-04-24T12:21:58;4.45;;;2.00;;
8564;SDS011;4320;51.498;6.556;2023-04-24T12:24:24;6.60;;;2.47;;
8564;SDS011;4320;51.498;6.556;2023-04-24T12:26:50;3.92;;;2.38;;
8564;SDS011;4320;51.498;6.556;2023-04-24T12:29:19;3.90;;;2.10;;
8564;SDS011;4320;51.498;6.556;2023-04-24T12:31:46;2.85;;;2.15;;
8564;SDS011;4320;51.498;6.556;2023-04-24T12:34:21;7.22;;;2.75;;
8564;SDS011;4320;51.498;6.556;2023-04-24T12:36:48;4.47;;;2.85;;
8564;SDS011;4320;51.498;6.556;2023-04-24T12:39:15;3.95;;;3.03;;
8564;SDS011;4320;51.498;6.556;2023-04-24T12:41:56;5.43;;;3.38;;
8564;SDS011;4320;51.498;6.556;2023-04-24T12:44:32;5.32;;;2.65;;
8564;SDS011;4320;51.498;6.556;2023-04-24T12:46:59;4.55;;;2.03;;
8564;SDS011;4320;51.498;6.556;2023-04-24T12:49:25;6.15;;;2.67;;
8564;SDS011;4320;51.498;6.556;2023-04-24T12:51:51;4.78;;;1.95;;
8564;SDS011;4320;51.498;6.556;2023-04-24T12:54:18;2.85;;;1.70;;
8564;SDS011;4320;51.498;6.556;2023-04-24T12:56:43;2.58;;;1.30;;
8564;SDS011;4320;51.498;6.556;2023-04-24T12:59:09;6.05;;;1.52;;
8564;SDS011;4320;51.498;6.556;2023-04-24T13:01:34;6.38;;;1.52;;
8564;SDS011;4320;51.498;6.556;2023-04-24T13:04:00;2.75;;;1.60;;
8564;SDS011;4320;51.498;6.556;2023-04-24T13:06:26;3.13;;;1.80;;
8564;SDS011;4320;51.498;6.556;2023-04-24T13:08:52;6.30;;;1.90;;
8564;SDS011;4320;51.498;6.556;2023-04-24T13:11:19;4.35;;;2.28;;
8564;SDS011;4320;51.498;6.556;2023-04-24T13:13:46;1.90;;;1.63;;
8564;SDS011;4320;51.498;6.556;2023-04-24T13:16:12;4.30;;;1.63;;
8564;SDS011;4320;51.498;6.556;2023-04-24T13:18:38;4.30;;;1.90;;
8564;SDS011;4320;51.498;6.556;2023-04-24T13:21:04;5.05;;;2.08;;
8564;SDS011;4320;51.498;6.556;2023-04-24T13:23:29;2.17;;;1.77;;
8564;SDS011;4320;51.498;6.556;2023-04-24T13:25:55;2.17;;;1.38;;
8564;SDS011;4320;51.498;6.556;2023-04-24T13:28:23;6.70;;;1.50;;
8564;SDS011;4320;51.498;6.556;2023-04-24T13:30:50;3.42;;;1.50;;
8564;SDS011;4320;51.498;6.556;2023-04-24T13:33:16;3.70;;;1.65;;
8564;SDS011;4320;51.498;6.556;2023-04-24T13:35:41;2.50;;;1.35;;
8564;SDS011;4320;51.498;6.556;2023-04-24T13:38:07;4.10;;;1.80;;
8564;SDS011;4320;51.498;6.556;2023-04-24T13:40:33;7.85;;;1.63;;
8564;SDS011;4320;51.498;6.556;2023-04-24T13:42:58;5.65;;;1.95;;
8564;SDS011;4320;51.498;6.556;2023-04-24T13:45:24;4.55;;;1.80;;
8564;SDS011;4320;51.498;6.556;2023-04-24T13:47:50;4.55;;;1.95;;
8564;SDS011;4320;51.498;6.556;2023-04-24T13:50:16;7.97;;;2.45;;
8564;SDS011;4320;51.498;6.556;2023-04-24T13:52:42;2.50;;;1.45;;
8564;SDS011;4320;51.498;6.556;2023-04-24T13:55:07;5.55;;;1.73;;
8564;SDS011;4320;51.498;6.556;2023-04-24T13:57:33;1.90;;;1.52;;
8564;SDS011;4320;51.498;6.556;2023-04-24T13:59:59;6.53;;;1.90;;
8564;SDS011;4320;51.498;6.556;2023-04-24T14:02:27;5.10;;;1.98;;
8564;SDS011;4320;51.498;6.556;2023-04-24T14:04:52;5.10;;;2.17;;
8564;SDS011;4320;51.498;6.556;2023-04-24T14:07:18;4.10;;;1.63;;
8564;SDS011;4320;51.498;6.556;2023-04-24T14:09:43;2.90;;;1.70;;
8564;SDS011;4320;51.498;6.556;2023-04-24T14:12:09;4.05;;;2.00;;
8564;SDS011;4320;51.498;6.556;2023-04-24T14:14:35;4.57;;;1.85;;
8564;SDS011;4320;51.498;6.556;2023-04-24T14:17:00;2.35;;;1.70;;
8564;SDS011;4320;51.498;6.556;2023-04-24T14:19:26;3.67;;;1.83;;
8564;SDS011;4320;51.498;6.556;2023-04-24T14:21:52;4.68;;;2.00;;
8564;SDS011;4320;51.498;6.556;2023-04-24T14:24:17;3.72;;;1.95;;
8564;SDS011;4320;51.498;6.556;2023-04-24T14:26:43;4.15;;;2.15;;
8564;SDS011;4320;51.498;6.556;2023-04-24T14:29:08;5.65;;;2.33;;
8564;SDS011;4320;51.498;6.556;2023-04-24T14:31:34;4.55;;;2.30;;
8564;SDS011;4320;51.498;6.556;2023-04-24T14:34:00;3.50;;;2.00;;
8564;SDS011;4320;51.498;6.556;2023-04-24T14:36:25;4.53;;;2.10;;
8564;SDS011;4320;51.498;6.556;2023-04-24T14:38:51;2.75;;;1.90;;
8564;SDS011;4320;51.498;6.556;2023-04-24T14:41:17;1.88;;;1.70;;
8564;SDS011;4320;51.498;6.556;2023-04-24T14:43:42;5.63;;;1.95;;
8564;SDS011;4320;51.498;6.556;2023-04-24T14:46:08;3.28;;;2.03;;
8564;SDS011;4320;51.498;6.556;2023-04-24T14:48:33;4.50;;;1.77;;
8564;SDS011;4320;51.498;6.556;2023-04-24T14:50:59;2.38;;;1.63;;
8564;SDS011;4320;51.498;6.556;2023-04-24T14:53:25;2.72;;;1.70;;
8564;SDS011;4320;51.498;6.556;2023-04-24T14:55:50;2.38;;;1.50;;
8564;SDS011;4320;51.498;6.556;2023-04-24T14:58:16;3.85;;;1.73;;
8564;SDS011;4320;51.498;6.556;2023-04-24T15:00:42;1.52;;;1.33;;
8564;SDS011;4320;51.498;6.556;2023-04-24T15:03:07;4.85;;;1.50;;
8564;SDS011;4320;51.498;6.556;2023-04-24T15:05:33;3.28;;;1.58;;
8564;SDS011;4320;51.498;6.556;2023-04-24T15:07:59;2.80;;;1.65;;
8564;SDS011;4320;51.498;6.556;2023-04-24T15:10:25;4.22;;;1.90;;
8564;SDS011;4320;51.498;6.556;2023-04-24T15:12:51;2.05;;;1.77;;
8564;SDS011;4320;51.498;6.556;2023-04-24T15:15:16;4.45;;;1.70;;
8564;SDS011;4320;51.498;6.556;2023-04-24T15:17:42;4.78;;;1.75;;
8564;SDS011;4320;51.498;6.556;2023-04-24T15:20:08;10.25;;;2.10;;
8564;SDS011;4320;51.498;6.556;2023-04-24T15:22:34;5.15;;;2.33;;
8564;SDS011;4320;51.498;6.556;2023-04-24T15:25:00;5.45;;;2.90;;
8564;SDS011;4320;51.498;6.556;2023-04-24T15:27:26;4.28;;;2.20;;
8564;SDS011;4320;51.498;6.556;2023-04-24T15:29:51;5.70;;;2.42;;